Latest Weather Observations for Collie East

IDW60801

Issued at 10:03 pm WST Sunday 19 April 2015 (issued every 30 minutes, with the page automatically refreshed every 10 minutes)

About weather observations | Map of weather stations | Latest weather observations for WA | Other Formats
Station Details ID: 009994 Name: COLLIE EAST Lat: -33.36 Lon: 116.17 Height: 200.0 m
Data from the previous 72 hours. | See also: Recent months at Collie East
Date/Time
WST
Temp
°C
App
Temp
°C
Dew
Point
Rel
Hum
%
Delta-T
°C
Wind Press
QNH
hPa
Press
MSL
hPa
Rain
since 9 am
mm
Dir
 
Spd
km/h
Gust
km/h
Spd
kts
Gust
kts
19/10:00pm 10.8 10.6 8.9 88 1.0 CALM 0 0 0 0 - - 0.0
19/09:30pm 11.4 11.2 9.1 86 1.2 CALM 0 0 0 0 - - 0.0
19/09:00pm 12.1 12.1 9.7 85 1.2 CALM 0 0 0 0 - - 0.0
19/08:30pm 12.7 12.7 9.7 82 1.5 CALM 0 0 0 0 - - 0.0
19/08:00pm 13.4 13.4 9.8 79 1.9 CALM 0 0 0 0 - - 0.0
19/07:30pm 14.6 14.8 10.4 76 2.2 CALM 0 0 0 0 - - 0.0
19/07:00pm 16.0 16.1 10.3 69 3.0 CALM 0 0 0 0 - - 0.0
19/06:30pm 17.8 17.8 9.7 59 4.3 CALM 0 0 0 0 - - 0.0
19/06:00pm 19.7 19.8 10.1 54 5.2 CALM 0 6 0 3 - - 0.0
19/05:30pm 23.5 21.9 8.8 39 7.9 E 7 13 4 7 - - 0.0
19/05:00pm 24.5 22.5 8.5 36 8.6 ENE 9 13 5 7 - - 0.0
19/04:30pm 24.9 22.0 8.0 34 9.1 ENE 13 17 7 9 - - 0.0
19/04:00pm 25.5 23.1 8.5 34 9.2 ENE 11 20 6 11 - - 0.0
19/03:30pm 25.5 23.1 8.5 34 9.2 ENE 11 17 6 9 - - 0.0
19/03:00pm 25.5 23.2 8.9 35 9.1 E 11 19 6 10 - - 0.0
19/02:30pm 25.2 22.8 8.7 35 9.0 E 11 17 6 9 - - 0.0
19/02:00pm 25.0 23.6 9.7 38 8.5 NE 7 11 4 6 - - 0.0
19/01:30pm 25.2 23.8 11.0 41 8.0 ENE 9 17 5 9 - - 0.0
19/01:00pm 24.4 22.4 10.3 41 7.9 NNE 11 17 6 9 - - 0.0
19/12:30pm 23.7 22.0 11.1 45 7.1 NE 11 20 6 11 - - 0.0
19/12:00pm 22.6 20.4 10.7 47 6.6 ENE 13 20 7 11 - - 0.0
19/11:30am 22.2 20.3 10.4 47 6.5 NE 11 20 6 11 - - 0.0
19/11:00am 21.6 19.2 11.3 52 5.8 NE 15 26 8 14 - - 0.0
19/10:30am 20.8 18.4 11.4 55 5.2 NNE 15 24 8 13 - - 0.0
19/10:00am 19.3 17.2 11.3 60 4.4 NE 13 24 7 13 - - 0.0
19/09:30am 18.3 16.0 11.8 66 3.6 NNE 15 22 8 12 - - 0.0
19/09:00am 16.9 15.5 12.2 74 2.6 NE 11 19 6 10 - - 0.0
19/08:30am 15.3 14.2 12.1 81 1.8 ENE 9 17 5 9 - - 0.0
19/08:00am 12.9 13.2 12.1 95 0.4 SE 2 11 1 6 - - 0.0
19/07:30am 9.4 9.1 8.5 94 0.4 CALM 0 0 0 0 - - 0.0
19/07:00am 8.3 7.7 7.2 93 0.5 CALM 0 0 0 0 - - 0.0
19/06:30am 8.6 8.0 7.5 93 0.5 CALM 0 0 0 0 - - 0.0
19/06:00am 8.4 7.8 7.3 93 0.5 CALM 0 0 0 0 - - 0.0
19/05:30am 8.2 7.5 7.1 93 0.5 CALM 0 0 0 0 - - 0.0
19/05:00am 9.0 8.5 7.9 93 0.5 CALM 0 0 0 0 - - 0.0
19/04:30am 8.7 8.1 7.5 92 0.6 CALM 0 0 0 0 - - 0.0
19/04:00am 8.9 8.0 7.7 92 0.6 SE 2 6 1 3 - - 0.0
19/03:30am 9.3 8.8 7.9 91 0.7 CALM 0 0 0 0 - - 0.0
19/03:00am 9.8 8.7 8.4 91 0.7 SE 4 6 2 3 - - 0.0
19/02:30am 10.0 9.6 8.4 90 0.8 CALM 0 0 0 0 - - 0.0
19/02:00am 10.8 10.6 9.2 90 0.8 CALM 0 0 0 0 - - 0.0
19/01:30am 11.8 11.4 9.7 87 1.1 ESE 2 7 1 4 - - 0.0
19/01:00am 13.3 12.5 11.0 86 1.2 ESE 6 7 3 4 - - 0.0
19/12:30am 13.4 12.6 10.9 85 1.3 ESE 6 7 3 4 - - 0.0
19/12:00am 14.1 13.4 11.3 83 1.5 E 6 11 3 6 - - 0.0
 
Date/Time
WST
Temp
°C
App
Temp
°C
Dew
Point
Rel
Hum
%
Delta-T
°C
Wind Press
QNH
hPa
Press
MSL
hPa
Rain
since 9 am
mm
Dir
 
Spd
km/h
Gust
km/h
Spd
kts
Gust
kts
18/11:30pm 14.7 13.5 11.5 81 1.7 E 9 13 5 7 - - 0.0
18/11:00pm 14.8 13.9 11.4 80 1.8 E 7 13 4 7 - - 0.0
18/10:30pm 15.2 14.0 11.6 79 2.0 E 9 15 5 8 - - 0.0
18/10:00pm 15.6 14.5 11.8 78 2.1 ESE 9 15 5 8 - - 0.0
18/09:30pm 15.7 14.9 11.7 77 2.2 ESE 7 15 4 8 - - 0.0
18/09:00pm 15.9 15.2 11.9 77 2.2 ESE 7 11 4 6 - - 0.0
18/08:30pm 16.2 15.5 12.0 76 2.3 ESE 7 11 4 6 - - 0.0
18/08:00pm 16.7 16.1 12.3 75 2.4 ESE 7 15 4 8 - - 0.0
18/07:30pm 17.2 15.8 12.3 73 2.7 E 11 17 6 9 - - 0.0
18/07:00pm 17.9 16.9 12.4 70 3.1 ESE 9 15 5 8 - - 0.0
18/06:30pm 18.5 17.0 12.0 66 3.6 ESE 11 20 6 11 - - 0.0
18/06:00pm 19.0 17.9 11.8 63 4.0 ESE 9 15 5 8 - - 0.0
18/05:30pm 20.2 18.9 10.0 52 5.5 ESE 7 11 4 6 - - 0.0
18/05:00pm 21.0 19.2 10.8 52 5.6 ESE 11 20 6 11 - - 0.0
18/04:30pm 21.8 19.8 10.0 47 6.5 ESE 11 19 6 10 - - 0.0
18/04:00pm 22.0 20.0 10.2 47 6.5 ESE 11 19 6 10 - - 0.0
18/03:30pm 22.1 19.8 10.6 48 6.4 ESE 13 24 7 13 - - 0.0
18/03:00pm 21.9 19.7 10.7 49 6.2 ESE 13 20 7 11 - - 0.0
18/02:30pm 22.1 19.9 10.9 49 6.2 ESE 13 22 7 12 - - 0.0
18/02:00pm 21.8 19.7 11.2 51 5.9 ESE 13 26 7 14 - - 0.0
18/01:30pm 21.4 19.4 11.4 53 5.6 ESE 13 20 7 11 - - 0.0
18/01:00pm 21.6 19.8 11.0 51 5.9 ESE 11 19 6 10 - - 0.0
18/12:30pm 21.8 19.3 11.2 51 5.9 ESE 15 26 8 14 - - 0.0
18/12:00pm 21.6 19.5 11.3 52 5.8 ESE 13 28 7 15 - - 0.0
18/11:30am 20.2 18.0 10.9 55 5.1 ESE 13 20 7 11 - - 0.0
18/11:00am 20.1 18.3 12.1 60 4.5 E 13 20 7 11 - - 0.0
18/10:30am 19.4 16.8 10.7 57 4.8 E 15 24 8 13 - - 0.0
18/10:00am 18.9 18.0 10.7 59 4.5 ENE 6 17 3 9 - - 0.0
18/09:30am 17.0 16.7 11.5 70 3.0 ESE 4 17 2 9 - - 0.0
18/09:00am 13.2 13.4 10.7 85 1.3 CALM 0 0 0 0 - - 0.0
18/08:30am 9.5 9.1 8.4 93 0.5 CALM 0 0 0 0 - - 0.0
18/08:00am 7.7 7.0 6.8 94 0.4 CALM 0 0 0 0 - - 0.0
18/07:30am 5.9 4.8 5.0 94 0.4 CALM 0 0 0 0 - - 0.0
18/07:00am 4.6 3.2 3.6 93 0.4 CALM 0 0 0 0 - - 0.0
18/06:30am 4.4 3.0 3.4 93 0.4 CALM 0 0 0 0 - - 0.0
18/06:00am 4.5 3.1 3.5 93 0.4 CALM 0 0 0 0 - - 0.0
18/05:30am 4.4 3.0 3.4 93 0.4 CALM 0 0 0 0 - - 0.0
18/05:00am 5.1 3.8 4.1 93 0.4 CALM 0 0 0 0 - - 0.0
18/04:30am 5.1 3.8 4.1 93 0.4 CALM 0 0 0 0 - - 0.0
18/04:00am 5.5 4.3 4.5 93 0.4 CALM 0 0 0 0 - - 0.0
18/03:30am 5.6 4.4 4.6 93 0.4 CALM 0 0 0 0 - - 0.0
18/03:00am 6.0 4.8 4.8 92 0.5 CALM 0 0 0 0 - - 0.0
18/02:30am 6.5 5.4 5.3 92 0.5 CALM 0 0 0 0 - - 0.0
18/02:00am 6.8 5.8 5.6 92 0.5 CALM 0 0 0 0 - - 0.0
18/01:30am 6.7 5.7 5.5 92 0.5 CALM 0 0 0 0 - - 0.0
18/01:00am 7.1 6.2 5.9 92 0.5 CALM 0 0 0 0 - - 0.0
18/12:30am 7.6 6.8 6.4 92 0.6 CALM 0 0 0 0 - - 0.0
18/12:00am 7.5 6.6 6.1 91 0.6 CALM 0 0 0 0 - - 0.0
 
Date/Time
WST
Temp
°C
App
Temp
°C
Dew
Point
Rel
Hum
%
Delta-T
°C
Wind Press
QNH
hPa
Press
MSL
hPa
Rain
since 9 am
mm
Dir
 
Spd
km/h
Gust
km/h
Spd
kts
Gust
kts
17/11:30pm 8.4 7.7 7.0 91 0.7 CALM 0 0 0 0 - - 0.0
17/11:00pm 8.8 8.2 7.4 91 0.7 CALM 0 0 0 0 - - 0.0
17/10:30pm 8.6 7.9 6.9 89 0.8 CALM 0 0 0 0 - - 0.0
17/10:00pm 9.7 9.3 8.1 90 0.8 CALM 0 0 0 0 - - 0.0
17/09:30pm 10.2 9.8 8.3 88 0.9 CALM 0 0 0 0 - - 0.0
17/09:00pm 10.8 10.5 8.7 87 1.0 CALM 0 0 0 0 - - 0.0
17/08:30pm 11.5 11.2 8.7 83 1.4 CALM 0 0 0 0 - - 0.0
17/08:00pm 12.6 12.5 9.6 82 1.5 CALM 0 0 0 0 - - 0.0
17/07:30pm 13.5 13.4 9.6 77 2.0 CALM 0 0 0 0 - - 0.0
17/07:00pm 15.0 14.5 9.4 69 2.9 WNW 2 6 1 3 - - 0.0
17/06:30pm 15.9 14.6 9.1 64 3.5 W 6 9 3 5 - - 0.0
17/06:00pm 15.9 15.6 8.6 62 3.8 CALM 0 0 0 0 - - 0.0
17/05:30pm 19.0 17.7 9.2 53 5.2 SSW 6 7 3 4 - - 0.0
17/05:00pm 21.5 19.9 8.7 44 6.8 SW 7 11 4 6 - - 0.0
17/04:30pm 21.8 19.5 7.6 40 7.4 WSW 9 17 5 9 - - 0.0
17/04:00pm 22.7 20.5 7.7 38 7.9 W 9 13 5 7 - - 0.0
17/03:30pm 22.8 20.5 7.4 37 8.1 WNW 9 15 5 8 - - 0.0
17/03:00pm 22.7 20.4 7.3 37 8.1 W 9 30 5 16 - - 0.0
17/02:30pm 23.0 21.1 9.0 41 7.6 WNW 9 19 5 10 - - 0.0
17/02:00pm 22.5 20.4 8.2 40 7.6 NW 9 17 5 9 - - 0.0
17/01:30pm 22.2 20.0 6.4 36 8.1 WNW 7 15 4 8 - - 0.0
17/01:00pm 21.3 19.2 6.8 39 7.5 S 7 15 4 8 - - 0.0
17/12:30pm 21.3 19.0 7.5 41 7.2 W 9 19 5 10 - - 0.0
17/12:00pm 20.7 18.4 7.3 42 6.9 W 9 13 5 7 - - 0.0
17/11:30am 20.1 18.7 7.1 43 6.7 SW 4 9 2 5 - - 0.0
17/11:00am 19.2 17.7 9.1 52 5.4 WNW 7 13 4 7 - - 0.0
17/10:30am 17.6 16.2 8.7 56 4.6 NNE 6 7 3 4 - - 0.0
17/10:00am 16.0 15.3 8.5 61 3.9 N 2 7 1 4 - - 0.0
17/09:30am 13.5 13.1 8.4 71 2.6 CALM 0 0 0 0 - - 0.0
17/09:00am 12.1 11.9 8.9 81 1.6 CALM 0 0 0 0 - - 0.0
17/08:30am 8.6 8.0 7.4 92 0.6 CALM 0 0 0 0 - - 0.0
17/08:00am 7.1 6.2 6.2 94 0.4 CALM 0 0 0 0 - - 0.0
17/07:30am 4.9 3.6 4.0 94 0.4 CALM 0 0 0 0 - - 0.0
17/07:00am 3.0 1.3 2.0 93 0.4 CALM 0 0 0 0 - - 0.0
17/06:30am 3.1 1.4 2.1 93 0.4 CALM 0 0 0 0 - - 0.0
17/06:00am 3.2 1.6 2.2 93 0.4 CALM 0 0 0 0 - - 0.0
17/05:30am 3.4 1.8 2.4 93 0.4 CALM 0 2 0 1 - - 0.0
17/05:00am 3.9 2.4 2.9 93 0.4 CALM 0 0 0 0 - - 0.0
17/04:30am 4.2 2.7 3.2 93 0.4 CALM 0 0 0 0 - - 0.0
17/04:00am 4.4 3.0 3.4 93 0.4 CALM 0 0 0 0 - - 0.0
17/03:30am 4.6 3.2 3.6 93 0.4 CALM 0 0 0 0 - - 0.0
17/03:00am 5.0 3.7 4.0 93 0.4 CALM 0 0 0 0 - - 0.0
17/02:30am 5.4 4.2 4.4 93 0.4 CALM 0 0 0 0 - - 0.0
17/02:00am 5.5 4.2 4.3 92 0.5 CALM 0 0 0 0 - - 0.0
17/01:30am 5.9 4.7 4.7 92 0.5 CALM 0 0 0 0 - - 0.0
17/01:00am 6.2 5.1 5.0 92 0.5 CALM 0 0 0 0 - - 0.0
17/12:30am 6.2 5.1 5.0 92 0.5 CALM 0 0 0 0 - - 0.0
17/12:00am 6.8 5.8 5.6 92 0.5 CALM 0 0 0 0 - - 0.0
 
Date/Time
WST
Temp
°C
App
Temp
°C
Dew
Point
Rel
Hum
%
Delta-T
°C
Wind Press
QNH
hPa
Press
MSL
hPa
Rain
since 9 am
mm
Dir
 
Spd
km/h
Gust
km/h
Spd
kts
Gust
kts
16/11:30pm 7.1 6.1 5.7 91 0.6 CALM 0 0 0 0 - - 0.0
16/11:00pm 7.1 6.1 5.6 90 0.7 CALM 0 0 0 0 - - 0.0
16/10:30pm 8.1 7.3 6.7 91 0.7 CALM 0 0 0 0 - - 0.0

Other Formats:

Comma delimited format used in spreadsheet applications
http://www.bom.gov.au/fwo/IDW60801/IDW60801.95621.axf

JavaScript Object Notation format (JSON) in row-major order
http://www.bom.gov.au/fwo/IDW60801/IDW60801.95621.json